Time;durP1;ratioP1;P1;durP2;ratioP2;P2;SDS_P1;SDS_P2;PMS_P1;PMS_P2;Temp;Humidity;BMP_temperature;BMP_pressure;BME280_temperature;BME280_humidity;BME280_pressure;Samples;Min_cycle;Max_cycle;Signal;HPM_P1;HPM_P2
2024/04/12 00:01:37;;;;;;;22.15;5.18;;;;;;;;;;5312869;26;20071;-69
2024/04/12 00:04:08;;;;;;;23.38;5.85;;;;;;;;;;5312462;27;19998;-69
2024/04/12 00:06:33;;;;;;;19.23;5.65;;;;;;;;;;5312816;27;20047;-69
2024/04/12 00:08:58;;;;;;;20.35;7.38;;;;;;;;;;5312225;27;20001;-69
2024/04/12 00:11:24;;;;;;;26.88;7.47;;;;;;;;;;5312388;27;20001;-69
2024/04/12 00:13:52;;;;;;;23.80;8.57;;;;;;;;;;5312920;27;20001;-69
2024/04/12 00:16:23;;;;;;;28.20;9.75;;;;;;;;;;5312726;26;19998;-69
2024/04/12 00:18:57;;;;;;;30.95;10.48;;;;;;;;;;5283764;27;20005;-69
2024/04/12 00:21:23;;;;;;;30.73;8.73;;;;;;;;;;5283824;27;20038;-69
2024/04/12 00:23:48;;;;;;;31.23;10.00;;;;;;;;;;5312853;27;19997;-69
2024/04/12 00:26:13;;;;;;;34.55;11.45;;;;;;;;;;5313078;27;20029;-69
2024/04/12 00:28:38;;;;;;;29.95;12.38;;;;;;;;;;5312801;27;20002;-69
2024/04/12 00:31:06;;;;;;;42.40;13.38;;;;;;;;;;5311603;26;20459;-69
2024/04/12 00:33:33;;;;;;;33.75;12.73;;;;;;;;;;5312519;27;20364;-69
2024/04/12 00:36:12;;;;;;;43.95;13.20;;;;;;;;;;5312427;27;20009;-69
2024/04/12 00:38:46;;;;;;;41.08;11.93;;;;;;;;;;5284594;27;19998;-69
2024/04/12 00:41:18;;;;;;;41.75;13.48;;;;;;;;;;5311543;26;20013;-69
2024/04/12 00:43:53;;;;;;;43.85;12.85;;;;;;;;;;5310656;26;20022;-68
2024/04/12 00:46:23;;;;;;;35.30;11.20;;;;;;;;;;5309978;27;20004;-69
2024/04/12 00:48:52;;;;;;;41.25;14.48;;;;;;;;;;5311534;27;20010;-69
2024/04/12 00:51:19;;;;;;;47.40;13.15;;;;;;;;;;5312399;27;20458;-69
2024/04/12 00:53:46;;;;;;;36.38;12.98;;;;;;;;;;5312130;26;20525;-69
2024/04/12 00:56:13;;;;;;;33.92;13.48;;;;;;;;;;5312153;27;20349;-69
2024/04/12 00:58:41;;;;;;;47.92;12.63;;;;;;;;;;5311908;27;19997;-69
2024/04/12 01:01:11;;;;;;;44.13;13.32;;;;;;;;;;5311651;26;20076;-68
2024/04/12 01:03:45;;;;;;;32.90;12.52;;;;;;;;;;5311921;27;20367;-69
2024/04/12 01:06:17;;;;;;;45.25;15.15;;;;;;;;;;5283659;27;20414;-69
2024/04/12 01:08:46;;;;;;;39.70;13.75;;;;;;;;;;5312064;27;20013;-69
2024/04/12 01:11:15;;;;;;;45.88;13.90;;;;;;;;;;5311613;27;20335;-69
2024/04/12 01:13:40;;;;;;;40.53;15.95;;;;;;;;;;5311425;27;20077;-69
2024/04/12 01:16:06;;;;;;;36.92;13.73;;;;;;;;;;5311003;26;20034;-69
2024/04/12 01:18:34;;;;;;;42.42;12.75;;;;;;;;;;5311815;27;20451;-69
2024/04/12 01:21:00;;;;;;;42.38;16.20;;;;;;;;;;5312488;26;20347;-69
2024/04/12 01:23:28;;;;;;;43.05;13.23;;;;;;;;;;5312703;27;19993;-68
2024/04/12 01:25:56;;;;;;;38.65;14.70;;;;;;;;;;5313788;26;20001;-69
2024/04/12 01:28:22;;;;;;;43.00;14.18;;;;;;;;;;5314951;27;20079;-69
2024/04/12 01:30:47;;;;;;;44.25;14.43;;;;;;;;;;5314311;27;20451;-68
2024/04/12 01:33:13;;;;;;;34.97;12.13;;;;;;;;;;5314676;26;20091;-69
2024/04/12 01:35:42;;;;;;;39.83;11.63;;;;;;;;;;5314450;27;20033;-68
2024/04/12 01:38:18;;;;;;;41.65;13.90;;;;;;;;;;5314259;26;20002;-69
2024/04/12 01:40:46;;;;;;;43.38;14.07;;;;;;;;;;5312469;26;20012;-69
2024/04/12 01:43:18;;;;;;;41.28;14.90;;;;;;;;;;5307324;26;19998;-69
2024/04/12 01:45:43;;;;;;;44.67;14.85;;;;;;;;;;5314280;26;20016;-69
2024/04/12 01:48:10;;;;;;;43.75;15.48;;;;;;;;;;5314032;27;20002;-69
2024/04/12 01:50:40;;;;;;;42.03;14.15;;;;;;;;;;5314706;26;20463;-69
2024/04/12 01:53:09;;;;;;;44.20;15.10;;;;;;;;;;5314133;27;20033;-69
2024/04/12 01:55:34;;;;;;;48.92;17.40;;;;;;;;;;5314270;27;20010;-69
2024/04/12 01:58:00;;;;;;;48.03;17.33;;;;;;;;;;5314328;26;20427;-69
2024/04/12 02:00:27;;;;;;;50.58;16.50;;;;;;;;;;5313975;27;20004;-69
2024/04/12 02:02:54;;;;;;;46.53;17.67;;;;;;;;;;5310580;26;20005;-69
2024/04/12 02:05:29;;;;;;;40.88;16.08;;;;;;;;;;5313918;27;19993;-69
2024/04/12 02:07:59;;;;;;;39.85;16.23;;;;;;;;;;5313242;26;20412;-69
2024/04/12 02:10:24;;;;;;;44.75;16.00;;;;;;;;;;5314269;27;20012;-68
2024/04/12 02:12:53;;;;;;;52.33;16.75;;;;;;;;;;5313760;27;20464;-69
2024/04/12 02:15:20;;;;;;;48.13;17.13;;;;;;;;;;5311483;26;19994;-69
2024/04/12 02:18:08;;;;;;;40.05;16.70;;;;;;;;;;5313220;26;20375;-69
2024/04/12 02:20:36;;;;;;;42.30;15.07;;;;;;;;;;5313773;27;20521;-68
2024/04/12 02:23:05;;;;;;;46.33;16.63;;;;;;;;;;5311238;26;19993;-69
2024/04/12 02:25:37;;;;;;;49.95;19.42;;;;;;;;;;5314165;27;19998;-68
2024/04/12 02:28:08;;;;;;;45.90;15.68;;;;;;;;;;5313609;27;20034;-68
2024/04/12 02:30:45;;;;;;;38.63;14.30;;;;;;;;;;5312769;26;20012;-70
2024/04/12 02:33:17;;;;;;;44.22;15.63;;;;;;;;;;5313140;27;20463;-69
2024/04/12 02:35:44;;;;;;;49.10;18.70;;;;;;;;;;5311002;26;19994;-69
2024/04/12 02:38:20;;;;;;;55.35;17.00;;;;;;;;;;5313648;27;20467;-69
2024/04/12 02:40:46;;;;;;;53.15;18.48;;;;;;;;;;5313627;26;19993;-69
2024/04/12 02:43:15;;;;;;;54.67;19.23;;;;;;;;;;5313266;26;20012;-68
2024/04/12 02:45:48;;;;;;;51.05;19.30;;;;;;;;;;5313479;27;20335;-69
2024/04/12 02:48:13;;;;;;;47.42;17.50;;;;;;;;;;5311943;26;20436;-69
2024/04/12 02:50:39;;;;;;;45.83;17.02;;;;;;;;;;5312330;26;20017;-68
2024/04/12 02:53:05;;;;;;;37.70;13.00;;;;;;;;;;5313536;27;20006;-69
2024/04/12 02:55:30;;;;;;;40.33;14.85;;;;;;;;;;5313063;26;20376;-69
2024/04/12 02:57:56;;;;;;;38.22;13.40;;;;;;;;;;5313254;27;20001;-69
2024/04/12 03:00:22;;;;;;;46.42;15.32;;;;;;;;;;5312440;27;19997;-69
2024/04/12 03:02:52;;;;;;;38.47;14.43;;;;;;;;;;5313444;26;20325;-69
2024/04/12 03:05:18;;;;;;;45.92;14.70;;;;;;;;;;5311618;26;20005;-69
2024/04/12 03:07:45;;;;;;;39.05;14.57;;;;;;;;;;5312754;27;19994;-69
2024/04/12 03:10:18;;;;;;;40.88;14.73;;;;;;;;;;5308062;26;20001;-69
2024/04/12 03:12:45;;;;;;;40.60;12.77;;;;;;;;;;5313298;27;20033;-69
2024/04/12 03:15:10;;;;;;;39.90;14.55;;;;;;;;;;5313551;26;20008;-69
2024/04/12 03:17:35;;;;;;;31.05;12.48;;;;;;;;;;5313546;26;20005;-69
2024/04/12 03:20:03;;;;;;;37.75;12.55;;;;;;;;;;5313045;27;20006;-69
2024/04/12 03:22:28;;;;;;;36.97;12.80;;;;;;;;;;5313170;26;20463;-69
2024/04/12 03:24:54;;;;;;;37.88;12.98;;;;;;;;;;5312404;26;20026;-69
2024/04/12 03:27:19;;;;;;;32.22;11.65;;;;;;;;;;5311761;27;20022;-68
2024/04/12 03:29:49;;;;;;;34.35;12.85;;;;;;;;;;5313244;27;20041;-69
2024/04/12 03:32:14;;;;;;;35.35;12.43;;;;;;;;;;5312805;26;19994;-68
2024/04/12 03:34:40;;;;;;;30.17;12.07;;;;;;;;;;5312262;27;20060;-69
2024/04/12 03:37:23;;;;;;;37.42;12.02;;;;;;;;;;5311776;26;19998;-69
2024/04/12 03:39:59;;;;;;;32.90;13.80;;;;;;;;;;5306221;26;20336;-69
2024/04/12 03:42:28;;;;;;;31.73;11.45;;;;;;;;;;5312615;27;20004;-69
2024/04/12 03:44:56;;;;;;;31.50;10.48;;;;;;;;;;5311908;27;20005;-69
2024/04/12 03:47:25;;;;;;;34.47;12.00;;;;;;;;;;5313258;27;20097;-69
2024/04/12 03:49:52;;;;;;;35.20;11.73;;;;;;;;;;5312640;27;20029;-69
2024/04/12 03:52:19;;;;;;;28.60;10.50;;;;;;;;;;5313218;27;20066;-69
2024/04/12 03:54:47;;;;;;;30.30;10.50;;;;;;;;;;5313095;27;19998;-69
2024/04/12 03:57:13;;;;;;;31.83;9.80;;;;;;;;;;5313131;27;19998;-69
2024/04/12 03:59:42;;;;;;;37.85;11.65;;;;;;;;;;5282555;27;20013;-69
2024/04/12 04:02:08;;;;;;;33.60;11.05;;;;;;;;;;5313066;27;20009;-69
2024/04/12 04:04:37;;;;;;;30.98;9.90;;;;;;;;;;5312936;27;19998;-69
2024/04/12 04:07:04;;;;;;;36.28;10.85;;;;;;;;;;5313314;27;20021;-69
2024/04/12 04:09:29;;;;;;;34.13;9.32;;;;;;;;;;5312334;27;20009;-69
2024/04/12 04:11:55;;;;;;;34.10;10.20;;;;;;;;;;5312947;27;19994;-69
2024/04/12 04:14:25;;;;;;;26.73;8.82;;;;;;;;;;5312913;27;20052;-69
2024/04/12 04:16:52;;;;;;;36.72;11.75;;;;;;;;;;5312959;27;20002;-69
2024/04/12 04:19:30;;;;;;;27.50;11.35;;;;;;;;;;5312446;27;20006;-69
2024/04/12 04:21:58;;;;;;;27.58;10.30;;;;;;;;;;5312860;27;19998;-69
2024/04/12 04:24:24;;;;;;;29.73;9.57;;;;;;;;;;5312753;27;20398;-69
2024/04/12 04:26:51;;;;;;;28.73;9.57;;;;;;;;;;5312819;27;19997;-70
2024/04/12 04:29:16;;;;;;;33.63;10.23;;;;;;;;;;5312176;27;20009;-69
2024/04/12 04:31:56;;;;;;;34.25;10.63;;;;;;;;;;5312646;27;20082;-69
2024/04/12 04:34:22;;;;;;;31.58;10.57;;;;;;;;;;5312628;27;20013;-70
2024/04/12 04:36:49;;;;;;;32.38;11.20;;;;;;;;;;5312646;27;19994;-69
2024/04/12 04:39:17;;;;;;;30.23;11.20;;;;;;;;;;5311931;27;20010;-69
2024/04/12 04:41:46;;;;;;;34.63;10.93;;;;;;;;;;5312634;27;20005;-69
2024/04/12 04:44:15;;;;;;;34.72;11.30;;;;;;;;;;5312712;27;20093;-69
2024/04/12 04:46:44;;;;;;;35.13;13.35;;;;;;;;;;5311896;27;19998;-69
2024/04/12 04:49:11;;;;;;;37.13;12.55;;;;;;;;;;5312489;27;20105;-69
2024/04/12 04:51:39;;;;;;;30.83;11.80;;;;;;;;;;5312369;27;20049;-69
2024/04/12 04:54:05;;;;;;;38.08;11.18;;;;;;;;;;5312092;27;20043;-69
2024/04/12 04:56:32;;;;;;;40.58;13.27;;;;;;;;;;5314115;27;20007;-68
2024/04/12 04:58:57;;;;;;;41.97;15.50;;;;;;;;;;5314879;27;20030;-69
2024/04/12 05:01:25;;;;;;;34.60;12.90;;;;;;;;;;5314846;27;19998;-69
2024/04/12 05:03:52;;;;;;;45.33;12.68;;;;;;;;;;5314784;27;20025;-69
2024/04/12 05:06:24;;;;;;;38.53;13.02;;;;;;;;;;5314967;27;20029;-69
2024/04/12 05:08:53;;;;;;;40.15;11.43;;;;;;;;;;5314800;27;19998;-69
2024/04/12 05:11:19;;;;;;;29.02;11.43;;;;;;;;;;5314210;27;20002;-69
2024/04/12 05:13:49;;;;;;;35.15;12.38;;;;;;;;;;5315207;27;19994;-69
2024/04/12 05:16:19;;;;;;;33.00;11.70;;;;;;;;;;5314820;27;20002;-69
2024/04/12 05:18:44;;;;;;;36.03;12.07;;;;;;;;;;5313990;27;20339;-69
2024/04/12 05:21:13;;;;;;;39.25;12.32;;;;;;;;;;5314556;27;19998;-69
2024/04/12 05:23:39;;;;;;;30.02;11.02;;;;;;;;;;5314609;27;19997;-69
2024/04/12 05:26:06;;;;;;;42.88;12.15;;;;;;;;;;5314724;27;20012;-69
2024/04/12 05:28:32;;;;;;;34.03;11.23;;;;;;;;;;5314519;27;19998;-69
2024/04/12 05:30:57;;;;;;;31.67;12.05;;;;;;;;;;5314290;27;20021;-68
2024/04/12 05:33:24;;;;;;;38.53;11.32;;;;;;;;;;5314031;27;20001;-69
2024/04/12 05:35:50;;;;;;;36.17;13.15;;;;;;;;;;5314352;27;20001;-69
2024/04/12 05:38:20;;;;;;;34.55;11.82;;;;;;;;;;5314423;27;20471;-69
2024/04/12 05:40:51;;;;;;;38.33;11.90;;;;;;;;;;5313775;27;20001;-69
2024/04/12 05:43:17;;;;;;;40.63;11.90;;;;;;;;;;5314660;27;20107;-69
2024/04/12 05:45:47;;;;;;;34.72;11.77;;;;;;;;;;5314253;27;19997;-69
2024/04/12 05:48:13;;;;;;;37.95;12.43;;;;;;;;;;5314320;27;20002;-69
2024/04/12 05:50:42;;;;;;;37.67;12.18;;;;;;;;;;5314181;27;20483;-69
2024/04/12 05:53:11;;;;;;;38.03;12.70;;;;;;;;;;5313624;27;20009;-69
2024/04/12 05:56:25;;;;;;;31.83;11.32;;;;;;;;;;5314258;27;20417;-69
2024/04/12 05:58:25;;;;;;;39.55;12.75;;;;;;;;;;5301809;27;20005;-69
2024/04/12 06:00:50;;;;;;;33.85;11.80;;;;;;;;;;5313537;27;20008;-69
2024/04/12 06:03:16;;;;;;;31.83;11.82;;;;;;;;;;5314330;27;20412;-69
2024/04/12 06:05:53;;;;;;;36.55;12.07;;;;;;;;;;5313942;27;20064;-69
2024/04/12 06:08:20;;;;;;;36.35;10.93;;;;;;;;;;5313997;27;20044;-69
2024/04/12 06:10:47;;;;;;;33.08;10.02;;;;;;;;;;5313681;27;20454;-69
2024/04/12 06:13:16;;;;;;;36.67;11.68;;;;;;;;;;5313911;27;20005;-69
2024/04/12 06:15:43;;;;;;;37.58;12.40;;;;;;;;;;5314090;27;20003;-69
2024/04/12 06:18:12;;;;;;;35.25;10.98;;;;;;;;;;5313892;27;20035;-69
2024/04/12 06:20:38;;;;;;;28.02;9.88;;;;;;;;;;5314040;27;20016;-69
2024/04/12 06:25:31;;;;;;;30.30;10.95;;;;;;;;;;5340103;21;20072;-69
2024/04/12 06:27:56;;;;;;;33.00;10.70;;;;;;;;;;5314445;27;19998;-68
2024/04/12 06:30:24;;;;;;;39.20;12.77;;;;;;;;;;5313947;27;20033;-68
2024/04/12 06:32:50;;;;;;;37.85;12.90;;;;;;;;;;5314394;27;20002;-68
2024/04/12 06:35:20;;;;;;;32.33;11.77;;;;;;;;;;5312568;27;19998;-68
2024/04/12 06:37:47;;;;;;;36.70;12.75;;;;;;;;;;5314271;27;20025;-68
2024/04/12 06:40:15;;;;;;;36.13;13.40;;;;;;;;;;5283579;27;20455;-69
2024/04/12 06:42:42;;;;;;;32.17;12.25;;;;;;;;;;5285294;27;20364;-68
2024/04/12 06:45:10;;;;;;;33.92;11.43;;;;;;;;;;5284177;27;20460;-69
2024/04/12 06:47:41;;;;;;;33.75;12.23;;;;;;;;;;5314250;27;20444;-68
2024/04/12 06:50:08;;;;;;;34.95;10.80;;;;;;;;;;5313873;27;19997;-68
2024/04/12 06:52:35;;;;;;;39.90;12.32;;;;;;;;;;5314277;27;19993;-68
2024/04/12 06:55:01;;;;;;;34.83;11.50;;;;;;;;;;5283821;27;20029;-68
2024/04/12 06:57:27;;;;;;;30.42;12.05;;;;;;;;;;5312293;27;20060;-68
2024/04/12 06:59:53;;;;;;;33.17;12.05;;;;;;;;;;5313271;27;19997;-69
2024/04/12 07:02:23;;;;;;;36.08;12.00;;;;;;;;;;5313892;27;20005;-68
2024/04/12 07:04:53;;;;;;;35.70;12.93;;;;;;;;;;5285141;27;20320;-69
2024/04/12 07:07:22;;;;;;;37.10;12.77;;;;;;;;;;5283722;27;20013;-68
2024/04/12 07:10:01;;;;;;;37.95;12.25;;;;;;;;;;5314201;27;19998;-68
2024/04/12 07:12:30;;;;;;;36.08;13.88;;;;;;;;;;5313397;27;20029;-68
2024/04/12 07:14:56;;;;;;;41.28;11.93;;;;;;;;;;5311973;27;20382;-68
2024/04/12 07:17:23;;;;;;;32.97;11.40;;;;;;;;;;5313430;27;20071;-68
2024/04/12 07:19:49;;;;;;;34.15;12.55;;;;;;;;;;5312558;27;20009;-69
2024/04/12 07:22:26;;;;;;;40.53;13.45;;;;;;;;;;5283587;27;20002;-68
2024/04/12 07:24:52;;;;;;;42.88;12.90;;;;;;;;;;5283315;27;20075;-68
2024/04/12 07:27:22;;;;;;;32.63;12.35;;;;;;;;;;5313558;27;20005;-69
2024/04/12 07:29:48;;;;;;;34.13;12.07;;;;;;;;;;5283816;27;20041;-68
2024/04/12 07:32:14;;;;;;;37.72;12.38;;;;;;;;;;5283358;27;20076;-67
2024/04/12 07:34:49;;;;;;;34.42;12.40;;;;;;;;;;5313242;27;20009;-68
2024/04/12 07:37:27;;;;;;;37.15;12.55;;;;;;;;;;5313373;27;20009;-68
2024/04/12 07:42:45;;;;;;;43.03;13.00;;;;;;;;;;5313608;27;20016;-68
2024/04/12 07:45:23;;;;;;;48.92;14.50;;;;;;;;;;5283936;27;20010;-68
2024/04/12 07:47:55;;;;;;;;;;;;;;;;;;5313830;27;19993;-68
2024/04/12 07:50:31;;;;;;;44.75;14.18;;;;;;;;;;5284979;27;19926;-68
2024/04/12 07:53:10;;;;;;;40.70;14.25;;;;;;;;;;5313154;27;20041;-68
2024/04/12 07:55:41;;;;;;;48.42;14.18;;;;;;;;;;5313245;27;19997;-68
2024/04/12 07:58:08;;;;;;;35.13;13.38;;;;;;;;;;5283334;27;20002;-68
2024/04/12 08:00:42;;;;;;;49.15;15.30;;;;;;;;;;5312604;27;20037;-68
2024/04/12 08:03:07;;;;;;;49.00;15.18;;;;;;;;;;5313043;27;19997;-68
2024/04/12 08:05:59;;;;;;;52.20;16.40;;;;;;;;;;5283075;27;20088;-67
2024/04/12 08:08:27;;;;;;;52.60;15.23;;;;;;;;;;5313294;27;20438;-68
2024/04/12 08:10:56;;;;;;;51.88;16.02;;;;;;;;;;5312692;27;20012;-68
2024/04/12 08:13:23;;;;;;;54.45;16.55;;;;;;;;;;5313114;27;20012;-68
2024/04/12 08:15:50;;;;;;;58.90;18.35;;;;;;;;;;5311407;27;19997;-67
2024/04/12 08:18:20;;;;;;;55.55;16.52;;;;;;;;;;5282671;27;19998;-68
2024/04/12 08:20:46;;;;;;;52.08;16.20;;;;;;;;;;5312956;27;19998;-68
2024/04/12 08:23:17;;;;;;;56.13;18.35;;;;;;;;;;5312440;27;20001;-67
2024/04/12 08:25:48;;;;;;;53.50;16.27;;;;;;;;;;5312960;27;20002;-68
2024/04/12 08:28:14;;;;;;;56.85;17.33;;;;;;;;;;5312965;27;20013;-68
2024/04/12 08:30:51;;;;;;;53.08;16.05;;;;;;;;;;5282564;27;20071;-68
2024/04/12 08:33:23;;;;;;;53.88;17.17;;;;;;;;;;5312749;27;20001;-68
2024/04/12 08:35:55;;;;;;;49.25;16.25;;;;;;;;;;5312205;27;20013;-68
2024/04/12 08:38:23;;;;;;;54.72;18.75;;;;;;;;;;5312665;27;20352;-68
2024/04/12 08:40:56;;;;;;;56.88;18.40;;;;;;;;;;5282499;27;20017;-68
2024/04/12 08:43:41;;;;;;;47.80;14.88;;;;;;;;;;5282176;27;20063;-67
2024/04/12 08:46:16;;;;;;;45.45;13.77;;;;;;;;;;5312630;27;20013;-67
2024/04/12 08:48:41;;;;;;;46.40;15.13;;;;;;;;;;5284124;27;20030;-68
2024/04/12 08:51:09;;;;;;;44.08;13.85;;;;;;;;;;5282304;27;20068;-68
2024/04/12 08:53:44;;;;;;;45.65;14.05;;;;;;;;;;5311768;27;20002;-68
2024/04/12 08:56:17;;;;;;;47.50;14.27;;;;;;;;;;5311069;27;19998;-68
2024/04/12 08:58:46;;;;;;;53.47;16.77;;;;;;;;;;5312303;27;20038;-68
2024/04/12 09:01:11;;;;;;;43.22;14.82;;;;;;;;;;5312297;27;20001;-68
2024/04/12 09:03:40;;;;;;;41.53;13.75;;;;;;;;;;5282268;27;20002;-68
2024/04/12 09:06:06;;;;;;;44.90;16.20;;;;;;;;;;5282528;27;20001;-68
2024/04/12 09:08:33;;;;;;;55.38;14.82;;;;;;;;;;5310500;27;20034;-68
2024/04/12 09:10:59;;;;;;;52.58;16.88;;;;;;;;;;5312137;27;20034;-68
2024/04/12 09:13:27;;;;;;;42.03;14.50;;;;;;;;;;5312196;27;20411;-68
2024/04/12 09:15:52;;;;;;;44.35;15.20;;;;;;;;;;5311600;27;20365;-68
2024/04/12 09:18:26;;;;;;;39.65;12.40;;;;;;;;;;5304454;27;19997;-67
2024/04/12 09:21:01;;;;;;;49.75;15.13;;;;;;;;;;5281648;27;19997;-68
2024/04/12 09:23:33;;;;;;;54.30;16.42;;;;;;;;;;5310142;27;20017;-68
2024/04/12 09:26:00;;;;;;;50.60;14.35;;;;;;;;;;5308676;27;20433;-67
2024/04/12 09:28:37;;;;;;;49.95;14.27;;;;;;;;;;5307786;27;20005;-68
2024/04/12 09:33:56;;;;;;;39.15;13.55;;;;;;;;;;5284627;27;20013;-68
2024/04/12 09:36:39;;;;;;;42.33;13.90;;;;;;;;;;5307584;27;20006;-68
2024/04/12 09:39:14;;;;;;;40.88;14.32;;;;;;;;;;5278298;27;20008;-68
2024/04/12 09:42:02;;;;;;;44.60;13.27;;;;;;;;;;5311023;27;20012;-68
2024/04/12 09:44:37;;;;;;;33.60;12.27;;;;;;;;;;5287049;27;20046;-67
2024/04/12 10:39:33;;;;;;;44.65;14.27;;;;;;;;;;5307490;26;20005;-68
2024/04/12 10:42:00;;;;;;;47.22;13.40;;;;;;;;;;5285429;27;20502;-68
2024/04/12 10:44:26;;;;;;;52.70;14.13;;;;;;;;;;5283133;27;20367;-68
2024/04/12 10:46:54;;;;;;;52.10;14.68;;;;;;;;;;5313686;27;19998;-67
2024/04/12 10:49:21;;;;;;;73.00;17.63;;;;;;;;;;5313049;27;19997;-68
2024/04/12 10:51:46;;;;;;;56.00;16.02;;;;;;;;;;5314108;27;20332;-68
2024/04/12 10:54:14;;;;;;;60.45;15.45;;;;;;;;;;5313320;27;20009;-68
2024/04/12 10:56:46;;;;;;;64.55;17.17;;;;;;;;;;5313972;27;19993;-68
2024/04/12 10:59:26;;;;;;;57.60;14.93;;;;;;;;;;5313882;27;20467;-68
2024/04/12 11:01:53;;;;;;;55.30;16.83;;;;;;;;;;5313426;27;20458;-68
2024/04/12 11:04:18;;;;;;;58.03;15.80;;;;;;;;;;5313795;27;20006;-68
2024/04/12 11:06:44;;;;;;;58.35;15.20;;;;;;;;;;5312148;27;20026;-68
2024/04/12 11:09:14;;;;;;;51.60;14.52;;;;;;;;;;5283863;27;20009;-69
2024/04/12 11:11:44;;;;;;;53.85;14.20;;;;;;;;;;5284736;27;20003;-69
2024/04/12 11:14:25;;;;;;;64.53;15.35;;;;;;;;;;5313774;27;20474;-68
2024/04/12 11:33:31;;;;;;;47.92;12.50;;;;;;;;;;5313101;27;20063;-69
2024/04/12 11:36:03;;;;;;;51.58;12.38;;;;;;;;;;5313447;27;20072;-68
2024/04/12 11:38:31;;;;;;;40.15;12.32;;;;;;;;;;5313421;27;20478;-69
2024/04/12 11:40:57;;;;;;;42.88;14.02;;;;;;;;;;5313429;27;20002;-69
2024/04/12 11:43:23;;;;;;;62.45;16.73;;;;;;;;;;5313298;27;20370;-68
2024/04/12 11:45:49;;;;;;;45.15;10.98;;;;;;;;;;5312815;27;19997;-68
2024/04/12 11:48:14;;;;;;;49.50;12.98;;;;;;;;;;5313324;27;20008;-68
2024/04/12 11:50:41;;;;;;;45.00;14.13;;;;;;;;;;5313208;27;20001;-68
2024/04/12 11:53:10;;;;;;;44.42;13.02;;;;;;;;;;5313434;27;20010;-69
2024/04/12 11:55:37;;;;;;;59.17;13.13;;;;;;;;;;5312652;27;20008;-68
2024/04/12 11:58:05;;;;;;;50.17;14.52;;;;;;;;;;5283649;27;20016;-69
2024/04/12 12:00:31;;;;;;;58.97;16.30;;;;;;;;;;5313165;27;20339;-69
2024/04/12 12:02:56;;;;;;;40.88;13.35;;;;;;;;;;5313047;27;20348;-69
2024/04/12 12:05:22;;;;;;;50.42;13.15;;;;;;;;;;5281956;27;20078;-69
2024/04/12 12:07:47;;;;;;;49.90;12.57;;;;;;;;;;5312469;27;20012;-68
2024/04/12 12:10:13;;;;;;;49.75;12.05;;;;;;;;;;5308416;27;20043;-67
2024/04/12 12:12:39;;;;;;;44.83;11.40;;;;;;;;;;5281542;27;20002;-68
2024/04/12 12:15:06;;;;;;;51.25;13.75;;;;;;;;;;5312026;27;20340;-69
2024/04/12 12:17:32;;;;;;;35.88;12.40;;;;;;;;;;5281617;27;20341;-69
2024/04/12 12:19:57;;;;;;;53.33;12.95;;;;;;;;;;5310957;27;19998;-68
2024/04/12 12:22:23;;;;;;;38.53;11.73;;;;;;;;;;5312069;27;20031;-69
2024/04/12 12:24:48;;;;;;;50.35;11.43;;;;;;;;;;5316780;21;20456;-67
2024/04/12 12:27:14;;;;;;;50.50;11.60;;;;;;;;;;5311875;27;19998;-67
2024/04/12 12:29:42;;;;;;;36.17;9.77;;;;;;;;;;5310509;27;20005;-67
2024/04/12 12:32:08;;;;;;;31.42;8.32;;;;;;;;;;5296276;27;20020;-67
2024/04/12 12:34:34;;;;;;;36.17;9.25;;;;;;;;;;5277963;27;19998;-67
2024/04/12 12:37:00;;;;;;;34.53;8.65;;;;;;;;;;5277562;27;20010;-67
2024/04/12 12:39:30;;;;;;;36.85;9.77;;;;;;;;;;5276314;27;20080;-67
2024/04/12 12:41:56;;;;;;;40.90;9.63;;;;;;;;;;5282225;27;19999;-68
2024/04/12 12:44:22;;;;;;;33.58;9.20;;;;;;;;;;5277539;27;20001;-67
2024/04/12 12:46:48;;;;;;;38.47;9.27;;;;;;;;;;5247259;27;20328;-67
2024/04/12 12:49:13;;;;;;;32.03;8.88;;;;;;;;;;5278721;27;20001;-67
2024/04/12 12:51:40;;;;;;;33.45;9.93;;;;;;;;;;5277574;27;20030;-67
2024/04/12 12:54:06;;;;;;;45.75;10.95;;;;;;;;;;5247904;27;20032;-67
2024/04/12 12:56:31;;;;;;;31.52;9.38;;;;;;;;;;5277745;27;19999;-67
2024/04/12 12:59:00;;;;;;;43.15;9.90;;;;;;;;;;5276860;27;20467;-67
2024/04/12 13:01:34;;;;;;;42.88;10.57;;;;;;;;;;5277610;27;20461;-67
2024/04/12 13:04:07;;;;;;;33.33;8.65;;;;;;;;;;5276096;27;20086;-67
2024/04/12 13:06:35;;;;;;;42.53;9.38;;;;;;;;;;5275789;27;20013;-68
2024/04/12 13:09:03;;;;;;;30.80;8.52;;;;;;;;;;5277859;27;20448;-67
2024/04/12 13:11:28;;;;;;;37.63;9.45;;;;;;;;;;5244789;27;19994;-67
2024/04/12 13:13:54;;;;;;;32.47;8.43;;;;;;;;;;5274354;27;20417;-67
2024/04/12 13:16:19;;;;;;;36.00;10.27;;;;;;;;;;5238579;27;20418;-67
2024/04/12 13:18:45;;;;;;;29.73;7.55;;;;;;;;;;5278565;27;20030;-67
2024/04/12 13:21:13;;;;;;;32.92;10.45;;;;;;;;;;5279545;27;20356;-68
2024/04/12 13:23:39;;;;;;;33.83;7.38;;;;;;;;;;5279728;27;20006;-67
2024/04/12 13:26:06;;;;;;;25.67;8.25;;;;;;;;;;5245248;27;20018;-67
2024/04/12 13:28:35;;;;;;;25.70;8.10;;;;;;;;;;5276061;27;20449;-66
2024/04/12 13:31:01;;;;;;;32.03;8.82;;;;;;;;;;5277037;27;20180;-66
2024/04/12 13:33:26;;;;;;;31.45;7.72;;;;;;;;;;5235311;27;20002;-66
2024/04/12 13:35:52;;;;;;;24.30;8.77;;;;;;;;;;5277580;27;20325;-67
2024/04/12 13:38:17;;;;;;;33.97;9.77;;;;;;;;;;5277893;27;19995;-68
2024/04/12 13:40:54;;;;;;;25.33;8.55;;;;;;;;;;5274865;27;20502;-67
2024/04/12 13:43:20;;;;;;;33.60;7.72;;;;;;;;;;5277507;27;19998;-68
2024/04/12 13:51:18;;;;;;;33.63;8.80;;;;;;;;;;5253572;27;20395;-67
2024/04/12 13:53:50;;;;;;;24.23;6.85;;;;;;;;;;5233376;27;19999;-67
2024/04/12 13:56:25;;;;;;;34.92;8.63;;;;;;;;;;5278939;27;20088;-67
2024/04/12 13:58:53;;;;;;;30.35;9.20;;;;;;;;;;5276485;27;20009;-67
2024/04/12 14:01:22;;;;;;;30.30;7.65;;;;;;;;;;5288488;27;20009;-67
2024/04/12 14:03:50;;;;;;;25.73;7.57;;;;;;;;;;5282266;27;20028;-67
2024/04/12 14:06:18;;;;;;;32.30;8.15;;;;;;;;;;5279909;27;20098;-67
2024/04/12 14:08:44;;;;;;;34.95;8.55;;;;;;;;;;5249871;27;20002;-68
2024/04/12 14:11:10;;;;;;;23.25;7.18;;;;;;;;;;5280035;27;20099;-67
2024/04/12 14:13:35;;;;;;;25.70;8.25;;;;;;;;;;5279918;27;20010;-67
2024/04/12 14:16:00;;;;;;;35.25;8.05;;;;;;;;;;5279380;27;20091;-66
2024/04/12 14:18:26;;;;;;;27.10;8.45;;;;;;;;;;5279384;27;20002;-67
2024/04/12 14:20:51;;;;;;;35.13;7.82;;;;;;;;;;5279777;27;20014;-67
2024/04/12 14:23:16;;;;;;;23.23;8.75;;;;;;;;;;5275950;27;20030;-68
2024/04/12 14:25:42;;;;;;;27.50;8.80;;;;;;;;;;5277709;27;20016;-68
2024/04/12 14:28:10;;;;;;;19.17;7.63;;;;;;;;;;5293111;27;20378;-67
2024/04/12 14:30:35;;;;;;;28.48;9.13;;;;;;;;;;5284684;27;19998;-67
2024/04/12 14:33:01;;;;;;;30.70;8.02;;;;;;;;;;5287248;27;20068;-68
2024/04/12 14:35:26;;;;;;;25.48;7.82;;;;;;;;;;5279718;27;20456;-67
2024/04/12 14:37:54;;;;;;;20.25;7.70;;;;;;;;;;5278939;27;20002;-67
2024/04/12 14:40:19;;;;;;;31.15;8.40;;;;;;;;;;5279580;27;20030;-67
2024/04/12 14:42:49;;;;;;;24.17;9.10;;;;;;;;;;5249798;27;20463;-68
2024/04/12 14:45:14;;;;;;;24.35;9.73;;;;;;;;;;5279351;27;19998;-67
2024/04/12 14:47:40;;;;;;;16.63;7.22;;;;;;;;;;5279850;27;20006;-67
2024/04/12 14:50:10;;;;;;;25.30;9.05;;;;;;;;;;5279636;27;20017;-68
2024/04/12 14:52:44;;;;;;;26.55;8.23;;;;;;;;;;5276672;27;20014;-66
2024/04/12 14:55:15;;;;;;;21.88;7.75;;;;;;;;;;5279434;27;20083;-68
2024/04/12 14:57:52;;;;;;;30.83;8.02;;;;;;;;;;5279369;27;20009;-68
2024/04/12 15:00:19;;;;;;;25.60;10.02;;;;;;;;;;5279694;27;20372;-68
2024/04/12 15:49:00;;;;;;;23.33;7.63;;;;;;;;;;5312950;27;20101;-68
2024/04/12 15:51:28;;;;;;;18.55;6.25;;;;;;;;;;5312345;27;20005;-68
2024/04/12 15:53:58;;;;;;;30.10;7.90;;;;;;;;;;5312624;27;20001;-68
2024/04/12 16:12:30;;;;;;;24.85;6.72;;;;;;;;;;5280239;27;20005;-68
2024/04/12 16:14:56;;;;;;;28.55;7.60;;;;;;;;;;5248216;27;20468;-68
2024/04/12 16:17:21;;;;;;;21.88;7.40;;;;;;;;;;5276932;27;20025;-68
2024/04/12 16:19:46;;;;;;;25.58;7.03;;;;;;;;;;5278351;27;20453;-67
2024/04/12 16:22:12;;;;;;;23.73;6.60;;;;;;;;;;5277638;27;20094;-67
2024/04/12 16:24:37;;;;;;;23.27;7.30;;;;;;;;;;5277779;27;19998;-68
2024/04/12 16:27:04;;;;;;;27.15;6.82;;;;;;;;;;5277980;27;20030;-68
2024/04/12 16:29:30;;;;;;;20.42;6.55;;;;;;;;;;5278367;27;19998;-67
2024/04/12 16:31:55;;;;;;;20.23;7.93;;;;;;;;;;5277962;27;20348;-68
2024/04/12 16:34:20;;;;;;;25.58;7.70;;;;;;;;;;5278211;27;20004;-68
2024/04/12 16:36:49;;;;;;;23.70;7.15;;;;;;;;;;5275799;27;20114;-68
2024/04/12 16:39:14;;;;;;;21.95;6.72;;;;;;;;;;5277894;27;20012;-68
2024/04/12 16:41:39;;;;;;;26.63;6.63;;;;;;;;;;5276159;27;20449;-68
2024/04/12 16:44:05;;;;;;;28.92;8.35;;;;;;;;;;5277969;27;20012;-68
2024/04/12 16:46:30;;;;;;;35.97;7.32;;;;;;;;;;5278006;27;20021;-68
2024/04/12 16:48:56;;;;;;;33.53;7.78;;;;;;;;;;5277274;27;20009;-68
2024/04/12 16:51:22;;;;;;;23.58;5.75;;;;;;;;;;5275907;27;20076;-68
2024/04/12 16:53:47;;;;;;;24.83;6.47;;;;;;;;;;5277262;27;20009;-68